Preview of NWS' New Version of Forecast
This preview is not operational and should not be used for support decisions.

Terminal Aerodrome Forecast (TAF)

Issued by National Weather Service (NWS)

                            
000
FTAK31 PAFC 240541
TAFADL
TAF
PADL 240541Z 2406/2506 15006KT P6SM -SHRA BKN040
     FM240800 VRB06KT P6SM FEW050=